首页
METAR-TAF:

METAR-TAF

机场 :

普拉, 克罗地亚

纬度: 44-54N, 经度: 013-55E, 海拔: 63米

当前天气观测

该预报发布于15分钟前的23:00 UTC
风速7节,风向东转东北
温度 15°C
湿度 59%
气压 1016 hPa
能见度10公里或以上
1500米以下无云,无积雨云

METAR: LDPL 312300Z 07007KT CAVOK 15/07 Q1016

时间: 01:15 (23:15 UTC)

预报

该预报发布于5小时和50分钟前的17:25 UTC
预报有效从31日的 18点(UTC)到 01日的 18点(UTC)
风速8节,风向西转西北
能见度10公里或以上
少量云层高于5000英尺
成为
从 31日的 18点(UTC)到 31日的 20点(UTC)
风速10节,风向东转东北
成为
从 31日的 23点(UTC)到 01日的 01点(UTC)
风速2节,风向多变
成为
从 01日的 12点(UTC)到 01日的 14点(UTC)
风速10节,风向东转东北

TAF: LDPL 311725Z 3118/0118 30008KT 9999 FEW050 TX23/0113Z TN14/0105Z BECMG 3118/3120 06010KT BECMG 3123/0101 VRB02KT BECMG 0112/0114 06010KT

超过4000个机场的气象观测和天气预报(METAR&TAF报告)。

可查询的气象台以黄色和红色小点在地图上表示。

将鼠标移到小点上方,可查看气象台名称。

然后点击查看天气观测和预报。

如需切换地图:点击带黑十字的绿色按钮放大地图;点击带横线的绿色按钮缩小地图;或者点击绿色箭头查看邻近地区的地图。


METAR-TAF: